Time,TemperatureF,DewpointF,PressureIn,WindDirection,WindDirectionDegrees,WindSpeedMPH,WindSpeedGustMPH,Humidity,HourlyPrecipIn,Conditions,Clouds,dailyrainin,SoftwareType,DateUTC
2013-11-13 07:22:00,25.0,13.0,-100.00,SSW,210,19.0,26.0,59,0.00,,,-99.99,,2013-11-13 13:22:00,
2013-11-13 07:42:00,26.0,13.0,-100.00,SSW,210,17.0,27.0,58,0.00,,,-99.99,,2013-11-13 13:42:00,
2013-11-13 08:11:00,26.0,14.0,-100.00,SSW,210,19.0,24.0,58,0.00,,,-99.99,,2013-11-13 14:11:00,
2013-11-13 08:22:00,27.0,15.0,-100.00,SSW,205,16.0,24.0,58,0.00,,,-99.99,,2013-11-13 14:22:00,
2013-11-13 08:42:00,29.0,16.0,-100.00,SSW,210,21.0,25.0,56,0.00,,,-99.99,,2013-11-13 14:42:00,
2013-11-13 09:22:00,33.0,18.0,-100.00,SSW,210,16.0,25.0,53,0.00,,,-99.99,,2013-11-13 15:22:00,
2013-11-13 09:43:00,34.0,18.0,-100.00,SW,215,18.0,24.0,51,0.00,,,-99.99,,2013-11-13 15:43:00,
2013-11-13 10:23:00,37.0,20.0,-100.00,SSW,210,19.0,24.0,48,0.00,,,-99.99,,2013-11-13 16:23:00,
2013-11-13 10:43:00,39.0,21.0,-100.00,SSW,205,19.0,26.0,47,0.00,,,-99.99,,2013-11-13 16:43:00,
2013-11-13 11:22:00,42.0,22.0,-100.00,SW,220,19.0,26.0,45,0.00,,,-99.99,,2013-11-13 17:22:00,
2013-11-13 11:42:00,42.0,22.0,-100.00,SW,220,20.0,29.0,45,0.00,,,-99.99,,2013-11-13 17:42:00,
2013-11-13 12:23:00,44.0,23.0,-100.00,SSW,205,23.0,31.0,43,0.00,,,-99.99,,2013-11-13 18:23:00,
2013-11-13 12:42:00,45.0,24.0,-100.00,SW,215,23.0,32.0,43,0.00,,,-99.99,,2013-11-13 18:42:00,
2013-11-13 13:21:00,46.0,24.0,-100.00,SSW,210,20.0,30.0,42,0.00,,,-99.99,,2013-11-13 19:21:00,
2013-11-13 13:42:00,46.0,24.0,-100.00,SSW,205,24.0,33.0,41,0.00,,,-99.99,,2013-11-13 19:42:00,
2013-11-13 14:22:00,47.0,25.0,-100.00,SSW,205,24.0,32.0,41,0.00,,,-99.99,,2013-11-13 20:22:00,
2013-11-13 14:42:00,47.0,24.0,-100.00,SSW,210,24.0,31.0,40,0.00,,,-99.99,,2013-11-13 20:42:00,
2013-11-13 15:22:00,47.0,25.0,-100.00,SW,215,22.0,32.0,40,0.00,,,-99.99,,2013-11-13 21:22:00,
2013-11-13 15:43:00,47.0,25.0,-100.00,SSW,205,22.0,29.0,40,0.00,,,-99.99,,2013-11-13 21:43:00,
2013-11-13 16:23:00,46.0,24.0,-100.00,SSW,205,19.0,26.0,41,0.00,,,-99.99,,2013-11-13 22:23:00,
2013-11-13 16:42:00,45.0,24.0,-100.00,SSW,210,20.0,26.0,42,0.00,,,-99.99,,2013-11-13 22:42:00,
2013-11-13 17:22:00,43.0,23.0,-100.00,SSW,200,21.0,25.0,44,0.00,,,-99.99,,2013-11-13 23:22:00,
2013-11-13 17:43:00,42.0,22.0,-100.00,South,185,17.0,24.0,46,0.00,,,-99.99,,2013-11-13 23:43:00,
2013-11-13 18:22:00,40.0,22.0,-100.00,South,190,19.0,23.0,47,0.00,,,-99.99,,2013-11-14 00:22:00,
2013-11-13 18:42:00,40.0,22.0,-100.00,SSW,200,17.0,27.0,47,0.00,,,-99.99,,2013-11-14 00:42:00,
2013-11-13 18:52:00,40.0,22.0,-100.00,SSW,200,17.0,27.0,47,0.00,,,-99.99,,2013-11-14 00:52:00,
2013-11-13 19:02:00,40.0,22.0,-100.00,SSW,200,17.0,27.0,47,0.00,,,-99.99,,2013-11-14 01:02:00,
2013-11-13 19:21:00,40.0,22.0,-100.00,SSW,195,21.0,26.0,47,0.00,,,-99.99,,2013-11-14 01:21:00,
2013-11-13 19:42:00,40.0,22.0,-100.00,SSW,195,19.0,27.0,47,0.00,,,-99.99,,2013-11-14 01:42:00,
2013-11-13 20:22:00,40.0,21.0,-100.00,SSW,205,19.0,29.0,46,0.00,,,-99.99,,2013-11-14 02:22:00,
2013-11-13 21:21:00,40.0,21.0,-100.00,SSW,205,19.0,32.0,46,0.00,,,-99.99,,2013-11-14 03:21:00,
2013-11-13 21:43:00,39.0,20.0,-100.00,SSW,200,21.0,26.0,46,0.00,,,-99.99,,2013-11-14 03:43:00,
2013-11-13 22:24:00,39.0,20.0,-100.00,SSW,210,19.0,29.0,46,0.00,,,-99.99,,2013-11-14 04:24:00,
2013-11-13 22:43:00,39.0,20.0,-100.00,SSW,205,21.0,28.0,46,0.00,,,-99.99,,2013-11-14 04:43:00,
2013-11-13 23:23:00,38.0,20.0,-100.00,SSW,210,20.0,29.0,46,0.00,,,-99.99,,2013-11-14 05:23:00,
2013-11-13 23:44:00,38.0,20.0,-100.00,SSW,210,17.0,24.0,46,0.00,,,-99.99,,2013-11-14 05:44:00,